createdAt,value
2019-04-19T00:03:24.226Z,15.08
2019-04-19T00:08:37.295Z,15.15
2019-04-19T00:13:28.418Z,15.08
2019-04-19T00:18:31.119Z,15.00
2019-04-19T00:23:38.325Z,14.86
2019-04-19T00:28:44.945Z,14.78
2019-04-19T00:33:47.569Z,14.85
2019-04-19T00:39:06.426Z,14.76
2019-04-19T00:44:38.536Z,14.69
2019-04-19T00:49:33.932Z,14.60
2019-04-19T00:54:45.554Z,14.60
2019-04-19T00:59:40.501Z,14.64
2019-04-19T01:04:39.686Z,14.39
2019-04-19T01:10:02.747Z,14.33
2019-04-19T01:15:01.026Z,14.31
2019-04-19T01:19:56.882Z,14.17
2019-04-19T01:24:56.318Z,14.13
2019-04-19T01:30:00.961Z,14.06
2019-04-19T01:35:09.716Z,14.02
2019-04-19T01:40:22.486Z,13.89
2019-04-19T01:45:42.391Z,13.86
2019-04-19T01:51:07.772Z,13.91
2019-04-19T01:55:53.199Z,13.89
2019-04-19T02:00:58.738Z,13.93
2019-04-19T02:06:05.152Z,13.86
2019-04-19T02:12:03.531Z,13.83
2019-04-19T02:17:02.578Z,13.57
2019-04-19T02:22:11.385Z,13.43
2019-04-19T02:27:10.101Z,13.32
2019-04-19T02:32:43.313Z,13.36
2019-04-19T02:37:37.628Z,13.10
2019-04-19T02:42:44.862Z,13.13
2019-04-19T02:48:12.988Z,13.05
2019-04-19T02:52:56.637Z,13.05
2019-04-19T02:58:04.534Z,13.04
2019-04-19T03:07:57.637Z,13.10
2019-04-19T03:13:19.546Z,13.12
2019-04-19T03:18:29.043Z,12.79
2019-04-19T03:23:21.798Z,12.88
2019-04-19T03:28:22.130Z,12.83
2019-04-19T03:38:39.818Z,12.87
2019-04-19T03:44:03.691Z,12.80
2019-04-19T03:49:19.600Z,12.65
2019-04-19T03:54:19.155Z,12.62
2019-04-19T03:59:02.854Z,12.70
2019-04-19T04:04:11.950Z,12.54
2019-04-19T04:09:25.113Z,12.50
2019-04-19T04:14:49.568Z,12.46
2019-04-19T04:19:39.655Z,12.37
2019-04-19T04:24:55.446Z,12.49
2019-04-19T04:30:00.124Z,12.56
2019-04-19T04:35:10.792Z,12.35
2019-04-19T04:39:57.679Z,12.38
2019-04-19T04:45:22.995Z,12.53
2019-04-19T04:51:04.447Z,12.38
2019-04-19T04:55:57.921Z,12.60
2019-04-19T05:01:05.006Z,12.56
2019-04-19T05:06:22.800Z,12.60
2019-04-19T05:11:24.426Z,12.68
2019-04-19T05:21:38.844Z,12.80
2019-04-19T05:26:48.135Z,12.82
2019-04-19T05:31:35.749Z,12.84
2019-04-19T05:36:54.603Z,13.07
2019-04-19T05:42:03.757Z,13.11
2019-04-19T05:47:17.198Z,13.37
2019-04-19T05:52:19.154Z,13.66
2019-04-19T05:57:28.107Z,13.84
2019-04-19T06:02:19.218Z,14.00
2019-04-19T06:07:31.743Z,14.02
2019-04-19T06:12:26.862Z,14.15
2019-04-19T06:17:56.348Z,14.31
2019-04-19T06:23:02.530Z,14.50
2019-04-19T06:33:13.787Z,14.47
2019-04-19T06:37:59.247Z,14.49
2019-04-19T06:43:11.136Z,14.61
2019-04-19T06:48:12.801Z,14.69
2019-04-19T06:53:12.280Z,14.96
2019-04-19T06:58:22.292Z,15.46
2019-04-19T07:03:19.822Z,15.82
2019-04-19T07:13:38.330Z,15.86
2019-04-19T07:18:42.513Z,16.12
2019-04-19T07:23:54.340Z,16.41
2019-04-19T07:28:41.908Z,16.55
2019-04-19T07:34:07.418Z,16.90
2019-04-19T07:39:09.462Z,17.05
2019-04-19T07:44:21.333Z,17.42
2019-04-19T07:49:15.312Z,17.63
2019-04-19T07:54:25.271Z,17.71
2019-04-19T07:59:55.688Z,17.99
2019-04-19T08:10:24.786Z,18.25
2019-04-19T08:15:15.447Z,18.15
2019-04-19T08:30:04.575Z,18.79
2019-04-19T08:35:09.383Z,19.06
2019-04-19T08:40:33.564Z,19.31
2019-04-19T08:45:33.057Z,19.50
2019-04-19T08:50:48.228Z,19.48
2019-04-19T08:56:05.616Z,19.53
2019-04-19T09:01:17.479Z,19.62
2019-04-19T09:07:05.757Z,19.83
2019-04-19T09:11:16.744Z,20.05
2019-04-19T09:16:20.429Z,20.29
2019-04-19T09:21:21.560Z,20.30
2019-04-19T09:26:36.919Z,20.46
2019-04-19T09:31:32.255Z,20.69
2019-04-19T09:36:35.796Z,20.81
2019-04-19T09:41:38.697Z,21.06
2019-04-19T09:46:36.029Z,20.75
2019-04-19T09:51:55.590Z,21.18
2019-04-19T09:56:57.946Z,21.39
2019-04-19T10:01:52.217Z,21.52
2019-04-19T10:06:54.214Z,21.70
2019-04-19T10:11:59.161Z,22.16
2019-04-19T10:17:12.350Z,21.79
2019-04-19T10:22:16.597Z,22.12
2019-04-19T10:27:24.867Z,22.21
2019-04-19T10:32:30.625Z,22.48
2019-04-19T10:37:33.724Z,22.47
2019-04-19T10:42:36.563Z,22.45
2019-04-19T10:47:39.969Z,22.88
2019-04-19T10:52:43.687Z,22.93
2019-04-19T10:57:47.348Z,23.17
2019-04-19T11:02:50.316Z,23.39
2019-04-19T11:07:53.759Z,23.60
2019-04-19T11:12:56.814Z,23.60
2019-04-19T11:17:59.555Z,23.42
2019-04-19T11:23:02.278Z,23.43
2019-04-19T11:28:05.058Z,23.56
2019-04-19T11:33:16.880Z,23.57
2019-04-19T11:38:20.922Z,23.78
2019-04-19T11:43:25.148Z,24.01
2019-04-19T11:48:30.336Z,23.93
2019-04-19T11:53:42.864Z,24.12
2019-04-19T11:58:47.097Z,24.01
2019-04-19T12:03:50.096Z,24.04
2019-04-19T12:08:54.026Z,24.06
2019-04-19T12:13:58.355Z,24.38
2019-04-19T12:19:02.170Z,24.39
2019-04-19T12:24:04.936Z,24.54
2019-04-19T12:29:07.657Z,24.70
2019-04-19T12:34:11.411Z,24.54
2019-04-19T12:39:15.113Z,24.37
2019-04-19T12:44:17.827Z,24.31
2019-04-19T12:49:20.804Z,24.46
2019-04-19T12:54:23.754Z,24.59
2019-04-19T12:59:26.559Z,24.93
2019-04-19T13:04:36.202Z,25.08
2019-04-19T13:09:39.319Z,25.11
2019-04-19T13:14:42.135Z,24.76
2019-04-19T13:19:45.091Z,25.05
2019-04-19T13:24:48.178Z,24.84
2019-04-19T13:29:52.000Z,24.78
2019-04-19T13:34:55.080Z,24.87
2019-04-19T13:40:17.509Z,25.02
2019-04-19T13:45:26.855Z,24.87
2019-04-19T13:50:32.182Z,25.38
2019-04-19T13:55:30.677Z,25.20
2019-04-19T14:00:46.805Z,25.02
2019-04-19T14:05:50.415Z,25.36
2019-04-19T14:10:53.181Z,25.40
2019-04-19T14:15:56.555Z,25.16
2019-04-19T14:21:00.966Z,25.15
2019-04-19T14:26:05.537Z,25.37
2019-04-19T14:31:08.514Z,25.54
2019-04-19T14:36:11.224Z,25.77
2019-04-19T14:41:13.972Z,25.81
2019-04-19T14:46:16.791Z,25.78
2019-04-19T14:51:25.813Z,25.58
2019-04-19T14:56:24.247Z,25.51
2019-04-19T15:01:46.898Z,25.58
2019-04-19T15:06:49.815Z,25.67
2019-04-19T15:11:52.717Z,25.85
2019-04-19T15:16:56.755Z,25.66
2019-04-19T15:21:59.801Z,25.56
2019-04-19T15:27:03.093Z,25.69
2019-04-19T15:32:06.341Z,25.76
2019-04-19T15:37:09.635Z,25.72
2019-04-19T15:42:12.437Z,25.92
2019-04-19T15:47:15.166Z,26.01
2019-04-19T15:52:18.104Z,25.74
2019-04-19T15:57:20.824Z,25.64
2019-04-19T16:02:42.282Z,25.59
2019-04-19T16:08:11.143Z,25.61
2019-04-19T16:13:13.969Z,25.47
2019-04-19T16:18:20.036Z,25.40
2019-04-19T16:23:23.894Z,25.46
2019-04-19T16:28:27.462Z,25.25
2019-04-19T16:33:30.386Z,25.16
2019-04-19T16:38:33.143Z,24.94
2019-04-19T16:43:35.886Z,24.90
2019-04-19T16:48:38.607Z,24.79
2019-04-19T16:53:42.232Z,24.69
2019-04-19T16:58:45.148Z,24.36
2019-04-19T17:03:47.907Z,24.23
2019-04-19T17:08:52.633Z,24.06
2019-04-19T17:13:56.591Z,23.81
2019-04-19T17:19:22.071Z,23.69
2019-04-19T17:24:26.867Z,23.66
2019-04-19T17:29:31.055Z,23.59
2019-04-19T17:34:34.217Z,23.26
2019-04-19T17:39:38.196Z,23.25
2019-04-19T17:44:41.744Z,23.18
2019-04-19T17:49:46.548Z,23.00
2019-04-19T17:55:04.964Z,22.94
2019-04-19T17:59:56.328Z,22.82
2019-04-19T18:05:00.024Z,22.60
2019-04-19T18:10:09.622Z,22.44
2019-04-19T18:15:09.832Z,22.37
2019-04-19T18:20:19.075Z,22.31
2019-04-19T18:25:20.147Z,22.14
2019-04-19T18:30:24.564Z,22.00
2019-04-19T18:35:31.796Z,21.81
2019-04-19T18:40:35.344Z,21.70
2019-04-19T18:45:41.966Z,21.48
2019-04-19T18:50:50.412Z,21.37
2019-04-19T18:55:53.581Z,21.17
2019-04-19T19:00:57.012Z,20.92
2019-04-19T19:06:04.097Z,20.75
2019-04-19T19:11:13.045Z,20.71
2019-04-19T19:16:18.569Z,20.51
2019-04-19T19:21:18.100Z,20.32
2019-04-19T19:26:31.869Z,20.08
2019-04-19T19:31:29.646Z,19.80
2019-04-19T19:36:37.936Z,19.85
2019-04-19T19:42:32.577Z,19.85
2019-04-19T19:47:25.130Z,19.62
2019-04-19T19:52:18.450Z,19.36
2019-04-19T19:57:23.009Z,19.34
2019-04-19T20:02:23.566Z,19.22
2019-04-19T20:07:20.667Z,18.96
2019-04-19T20:12:26.479Z,18.84
2019-04-19T20:17:29.279Z,18.72
2019-04-19T20:22:39.126Z,18.70
2019-04-19T20:27:44.870Z,18.60
2019-04-19T20:32:49.918Z,18.44
2019-04-19T20:37:52.046Z,18.61
2019-04-19T20:43:16.585Z,18.74
2019-04-19T20:48:07.901Z,18.72
2019-04-19T20:53:29.255Z,18.73
2019-04-19T20:58:34.324Z,18.55
2019-04-19T21:03:34.334Z,18.41
2019-04-19T21:08:42.365Z,18.39
2019-04-19T21:13:45.850Z,18.36
2019-04-19T21:18:49.440Z,18.38
2019-04-19T21:24:01.503Z,18.34
2019-04-19T21:28:59.192Z,18.34
2019-04-19T21:34:05.983Z,18.39
2019-04-19T21:39:11.973Z,18.21
2019-04-19T21:44:17.940Z,18.23
2019-04-19T21:49:22.804Z,18.14
2019-04-19T21:54:26.434Z,18.01
2019-04-19T21:59:34.553Z,17.99
2019-04-19T22:04:41.150Z,17.82
2019-04-19T22:09:43.379Z,17.87
2019-04-19T22:14:44.435Z,17.83
2019-04-19T22:19:47.728Z,17.53
2019-04-19T22:24:51.393Z,17.71
2019-04-19T22:29:55.571Z,17.67
2019-04-19T22:35:00.756Z,17.46
2019-04-19T22:40:04.869Z,17.26
2019-04-19T22:45:11.658Z,17.17
2019-04-19T22:50:19.391Z,17.10
2019-04-19T22:55:19.113Z,17.07
2019-04-19T23:00:24.729Z,17.03
2019-04-19T23:05:36.578Z,16.89
2019-04-19T23:10:45.038Z,16.85
2019-04-19T23:15:39.139Z,16.81
2019-04-19T23:20:43.388Z,16.74
2019-04-19T23:25:57.081Z,16.69
2019-04-19T23:30:51.753Z,16.67
2019-04-19T23:35:55.628Z,16.57
2019-04-19T23:40:59.277Z,16.44
2019-04-19T23:46:03.389Z,16.39
2019-04-19T23:51:06.399Z,16.19
2019-04-19T23:56:19.903Z,16.17
